sensor_id;sensor_type;location;lat;lon;timestamp;temperature;humidity
54082;DHT22;39986;50.770;0.266;2024-03-23T00:53:44;6.40;99.90
54082;DHT22;39986;50.770;0.266;2024-03-23T00:56:09;6.40;99.90
54082;DHT22;39986;50.770;0.266;2024-03-23T00:58:35;6.50;99.90
54082;DHT22;39986;50.770;0.266;2024-03-23T01:01:00;6.50;99.90
54082;DHT22;39986;50.770;0.266;2024-03-23T01:03:27;6.40;99.90
54082;DHT22;39986;50.770;0.266;2024-03-23T01:05:53;6.40;99.90
54082;DHT22;39986;50.770;0.266;2024-03-23T01:08:19;6.40;99.90
54082;DHT22;39986;50.770;0.266;2024-03-23T01:13:39;6.40;99.90
54082;DHT22;39986;50.770;0.266;2024-03-23T01:16:05;6.30;99.90
54082;DHT22;39986;50.770;0.266;2024-03-23T01:18:30;6.40;99.90
54082;DHT22;39986;50.770;0.266;2024-03-23T01:20:56;6.50;99.90
54082;DHT22;39986;50.770;0.266;2024-03-23T01:23:22;6.50;99.90
54082;DHT22;39986;50.770;0.266;2024-03-23T01:25:53;6.40;99.90
54082;DHT22;39986;50.770;0.266;2024-03-23T01:28:19;6.40;99.90
54082;DHT22;39986;50.770;0.266;2024-03-23T01:30:45;6.40;99.90
54082;DHT22;39986;50.770;0.266;2024-03-23T01:33:10;6.50;99.90
54082;DHT22;39986;50.770;0.266;2024-03-23T01:35:36;6.40;99.90
54082;DHT22;39986;50.770;0.266;2024-03-23T01:38:01;6.50;99.90
54082;DHT22;39986;50.770;0.266;2024-03-23T01:40:27;6.60;99.90
54082;DHT22;39986;50.770;0.266;2024-03-23T01:42:57;6.50;99.90
54082;DHT22;39986;50.770;0.266;2024-03-23T01:45:23;6.50;99.90
54082;DHT22;39986;50.770;0.266;2024-03-23T01:47:49;6.60;99.90
54082;DHT22;39986;50.770;0.266;2024-03-23T01:50:15;6.50;99.90
54082;DHT22;39986;50.770;0.266;2024-03-23T01:52:40;6.60;99.90
54082;DHT22;39986;50.770;0.266;2024-03-23T01:55:06;6.50;99.90
54082;DHT22;39986;50.770;0.266;2024-03-23T01:57:32;6.60;99.90
54082;DHT22;39986;50.770;0.266;2024-03-23T01:59:57;6.70;99.90
54082;DHT22;39986;50.770;0.266;2024-03-23T02:02:23;6.60;99.90
54082;DHT22;39986;50.770;0.266;2024-03-23T02:04:48;6.60;99.90
54082;DHT22;39986;50.770;0.266;2024-03-23T02:07:14;6.60;99.90
54082;DHT22;39986;50.770;0.266;2024-03-23T02:09:39;6.70;99.90
54082;DHT22;39986;50.770;0.266;2024-03-23T02:12:05;6.60;99.90
54082;DHT22;39986;50.770;0.266;2024-03-23T02:14:31;6.60;99.90
54082;DHT22;39986;50.770;0.266;2024-03-23T02:16:57;6.70;99.90
54082;DHT22;39986;50.770;0.266;2024-03-23T02:19:23;6.60;99.90
54082;DHT22;39986;50.770;0.266;2024-03-23T02:24:14;6.70;99.90
54082;DHT22;39986;50.770;0.266;2024-03-23T02:26:40;6.70;99.90
54082;DHT22;39986;50.770;0.266;2024-03-23T02:29:05;6.50;99.90
54082;DHT22;39986;50.770;0.266;2024-03-23T02:31:31;6.40;99.90
54082;DHT22;39986;50.770;0.266;2024-03-23T02:33:56;6.50;99.90
54082;DHT22;39986;50.770;0.266;2024-03-23T02:36:22;6.30;99.90
54082;DHT22;39986;50.770;0.266;2024-03-23T02:38:47;6.30;99.90
54082;DHT22;39986;50.770;0.266;2024-03-23T02:41:13;6.30;99.90
54082;DHT22;39986;50.770;0.266;2024-03-23T02:43:39;6.20;99.90
54082;DHT22;39986;50.770;0.266;2024-03-23T02:46:04;6.30;99.90
54082;DHT22;39986;50.770;0.266;2024-03-23T02:48:30;6.20;99.90
54082;DHT22;39986;50.770;0.266;2024-03-23T02:50:55;6.10;99.90
54082;DHT22;39986;50.770;0.266;2024-03-23T02:53:21;6.10;99.90
54082;DHT22;39986;50.770;0.266;2024-03-23T02:55:47;6.10;99.90
54082;DHT22;39986;50.770;0.266;2024-03-23T02:58:12;6.10;99.90
54082;DHT22;39986;50.770;0.266;2024-03-23T03:00:38;6.10;99.90
54082;DHT22;39986;50.770;0.266;2024-03-23T03:03:03;6.00;99.90
54082;DHT22;39986;50.770;0.266;2024-03-23T03:05:29;5.90;99.90
54082;DHT22;39986;50.770;0.266;2024-03-23T03:07:54;5.90;99.90
54082;DHT22;39986;50.770;0.266;2024-03-23T03:10:20;5.90;99.90
54082;DHT22;39986;50.770;0.266;2024-03-23T03:12:45;5.90;99.90
54082;DHT22;39986;50.770;0.266;2024-03-23T03:15:11;5.80;99.90
54082;DHT22;39986;50.770;0.266;2024-03-23T03:17:36;5.80;99.90
54082;DHT22;39986;50.770;0.266;2024-03-23T03:20:02;5.80;99.90
54082;DHT22;39986;50.770;0.266;2024-03-23T03:22:30;5.90;99.90
54082;DHT22;39986;50.770;0.266;2024-03-23T03:24:55;5.80;99.90
54082;DHT22;39986;50.770;0.266;2024-03-23T03:27:21;5.80;99.90
54082;DHT22;39986;50.770;0.266;2024-03-23T03:29:47;5.70;99.90
54082;DHT22;39986;50.770;0.266;2024-03-23T03:32:13;5.70;99.90
54082;DHT22;39986;50.770;0.266;2024-03-23T03:34:38;5.50;99.90
54082;DHT22;39986;50.770;0.266;2024-03-23T03:37:04;5.60;99.90
54082;DHT22;39986;50.770;0.266;2024-03-23T03:39:29;5.90;99.90
54082;DHT22;39986;50.770;0.266;2024-03-23T03:41:55;5.60;99.90
54082;DHT22;39986;50.770;0.266;2024-03-23T03:46:46;5.50;99.90
54082;DHT22;39986;50.770;0.266;2024-03-23T03:49:12;5.60;99.90
54082;DHT22;39986;50.770;0.266;2024-03-23T03:51:37;5.50;99.90
54082;DHT22;39986;50.770;0.266;2024-03-23T03:54:03;5.40;99.90
54082;DHT22;39986;50.770;0.266;2024-03-23T03:56:28;5.40;99.90
54082;DHT22;39986;50.770;0.266;2024-03-23T03:58:54;5.50;99.90
54082;DHT22;39986;50.770;0.266;2024-03-23T04:01:19;5.40;99.90
54082;DHT22;39986;50.770;0.266;2024-03-23T04:03:45;5.50;99.90
54082;DHT22;39986;50.770;0.266;2024-03-23T04:06:11;5.40;99.90
54082;DHT22;39986;50.770;0.266;2024-03-23T04:08:37;5.50;99.90
54082;DHT22;39986;50.770;0.266;2024-03-23T04:11:03;9.50;99.90
54082;DHT22;39986;50.770;0.266;2024-03-23T04:13:28;5.50;99.90
54082;DHT22;39986;50.770;0.266;2024-03-23T04:15:54;5.30;99.90
54082;DHT22;39986;50.770;0.266;2024-03-23T04:18:20;5.40;99.90
54082;DHT22;39986;50.770;0.266;2024-03-23T04:23:12;5.50;99.90
54082;DHT22;39986;50.770;0.266;2024-03-23T04:25:38;5.30;99.90
54082;DHT22;39986;50.770;0.266;2024-03-23T04:28:03;5.50;99.90
54082;DHT22;39986;50.770;0.266;2024-03-23T04:32:57;5.30;99.90
54082;DHT22;39986;50.770;0.266;2024-03-23T04:35:24;5.20;99.90
54082;DHT22;39986;50.770;0.266;2024-03-23T04:37:50;5.30;99.90
54082;DHT22;39986;50.770;0.266;2024-03-23T04:40:17;5.30;99.90
54082;DHT22;39986;50.770;0.266;2024-03-23T04:42:43;5.20;99.90
54082;DHT22;39986;50.770;0.266;2024-03-23T04:45:09;5.30;99.90
54082;DHT22;39986;50.770;0.266;2024-03-23T04:47:37;5.40;99.90
54082;DHT22;39986;50.770;0.266;2024-03-23T04:50:05;5.30;99.90
54082;DHT22;39986;50.770;0.266;2024-03-23T04:52:31;5.20;99.90
54082;DHT22;39986;50.770;0.266;2024-03-23T04:54:56;5.10;99.90
54082;DHT22;39986;50.770;0.266;2024-03-23T04:57:22;5.20;99.90
54082;DHT22;39986;50.770;0.266;2024-03-23T04:59:47;5.00;99.90
54082;DHT22;39986;50.770;0.266;2024-03-23T05:02:13;5.30;99.90
54082;DHT22;39986;50.770;0.266;2024-03-23T05:04:39;5.10;99.90
54082;DHT22;39986;50.770;0.266;2024-03-23T05:07:05;5.30;99.90
54082;DHT22;39986;50.770;0.266;2024-03-23T05:09:31;5.10;99.90
54082;DHT22;39986;50.770;0.266;2024-03-23T05:11:58;5.00;99.90
54082;DHT22;39986;50.770;0.266;2024-03-23T05:14:24;5.10;99.90
54082;DHT22;39986;50.770;0.266;2024-03-23T05:16:49;5.20;99.90
54082;DHT22;39986;50.770;0.266;2024-03-23T05:19:15;5.00;99.90
54082;DHT22;39986;50.770;0.266;2024-03-23T05:24:06;5.10;99.90
54082;DHT22;39986;50.770;0.266;2024-03-23T05:26:32;5.20;99.90
54082;DHT22;39986;50.770;0.266;2024-03-23T05:28:59;5.10;99.90
54082;DHT22;39986;50.770;0.266;2024-03-23T05:31:25;5.10;99.90
54082;DHT22;39986;50.770;0.266;2024-03-23T05:33:51;5.10;99.90
54082;DHT22;39986;50.770;0.266;2024-03-23T05:36:17;5.00;99.90
54082;DHT22;39986;50.770;0.266;2024-03-23T05:38:42;5.10;99.90
54082;DHT22;39986;50.770;0.266;2024-03-23T05:41:08;5.10;99.90
54082;DHT22;39986;50.770;0.266;2024-03-23T05:43:33;5.00;99.90
54082;DHT22;39986;50.770;0.266;2024-03-23T05:45:59;5.00;99.90
54082;DHT22;39986;50.770;0.266;2024-03-23T05:48:28;5.00;99.90
54082;DHT22;39986;50.770;0.266;2024-03-23T05:50:54;5.00;99.90
54082;DHT22;39986;50.770;0.266;2024-03-23T05:53:19;5.00;99.90
54082;DHT22;39986;50.770;0.266;2024-03-23T05:55:48;5.00;99.90
54082;DHT22;39986;50.770;0.266;2024-03-23T05:58:17;5.10;99.90
54082;DHT22;39986;50.770;0.266;2024-03-23T06:00:43;5.00;99.90
54082;DHT22;39986;50.770;0.266;2024-03-23T06:03:09;5.10;99.90
54082;DHT22;39986;50.770;0.266;2024-03-23T06:05:35;5.10;99.90
54082;DHT22;39986;50.770;0.266;2024-03-23T06:08:01;5.10;99.90
54082;DHT22;39986;50.770;0.266;2024-03-23T06:10:26;5.30;99.90
54082;DHT22;39986;50.770;0.266;2024-03-23T06:12:52;5.30;99.90
54082;DHT22;39986;50.770;0.266;2024-03-23T06:15:18;5.40;99.90
54082;DHT22;39986;50.770;0.266;2024-03-23T06:17:44;5.40;99.90
54082;DHT22;39986;50.770;0.266;2024-03-23T06:20:09;5.60;99.90
54082;DHT22;39986;50.770;0.266;2024-03-23T06:22:35;5.80;99.90
54082;DHT22;39986;50.770;0.266;2024-03-23T06:25:01;5.70;99.90
54082;DHT22;39986;50.770;0.266;2024-03-23T06:27:26;5.70;99.90
54082;DHT22;39986;50.770;0.266;2024-03-23T06:29:52;5.70;99.90
54082;DHT22;39986;50.770;0.266;2024-03-23T06:32:17;5.70;99.90
54082;DHT22;39986;50.770;0.266;2024-03-23T06:34:43;5.80;99.90
54082;DHT22;39986;50.770;0.266;2024-03-23T06:37:09;5.70;99.90
54082;DHT22;39986;50.770;0.266;2024-03-23T06:39:37;5.70;99.90
54082;DHT22;39986;50.770;0.266;2024-03-23T06:42:03;5.80;99.90
54082;DHT22;39986;50.770;0.266;2024-03-23T06:44:28;5.80;99.90
54082;DHT22;39986;50.770;0.266;2024-03-23T06:46:54;6.10;99.90
54082;DHT22;39986;50.770;0.266;2024-03-23T06:49:20;6.00;99.90
54082;DHT22;39986;50.770;0.266;2024-03-23T06:51:45;6.10;99.90
54082;DHT22;39986;50.770;0.266;2024-03-23T06:54:11;6.20;99.90
54082;DHT22;39986;50.770;0.266;2024-03-23T06:56:36;6.40;99.90
54082;DHT22;39986;50.770;0.266;2024-03-23T06:59:02;6.40;99.90
54082;DHT22;39986;50.770;0.266;2024-03-23T07:01:27;6.40;99.90
54082;DHT22;39986;50.770;0.266;2024-03-23T07:03:54;6.50;99.90
54082;DHT22;39986;50.770;0.266;2024-03-23T07:06:20;6.40;99.90
54082;DHT22;39986;50.770;0.266;2024-03-23T07:08:45;6.70;99.90
54082;DHT22;39986;50.770;0.266;2024-03-23T07:11:11;6.70;99.90
54082;DHT22;39986;50.770;0.266;2024-03-23T07:13:36;6.80;99.90
54082;DHT22;39986;50.770;0.266;2024-03-23T07:16:02;6.80;99.90
54082;DHT22;39986;50.770;0.266;2024-03-23T07:18:27;6.80;99.90
54082;DHT22;39986;50.770;0.266;2024-03-23T07:20:56;7.00;99.90
54082;DHT22;39986;50.770;0.266;2024-03-23T07:23:22;7.10;99.90
54082;DHT22;39986;50.770;0.266;2024-03-23T07:25:57;7.10;99.90
54082;DHT22;39986;50.770;0.266;2024-03-23T07:28:22;7.20;99.90
54082;DHT22;39986;50.770;0.266;2024-03-23T07:30:48;7.10;99.90
54082;DHT22;39986;50.770;0.266;2024-03-23T07:33:13;7.30;99.90
54082;DHT22;39986;50.770;0.266;2024-03-23T07:35:39;7.40;99.90
54082;DHT22;39986;50.770;0.266;2024-03-23T07:38:04;7.40;99.90
54082;DHT22;39986;50.770;0.266;2024-03-23T07:40:31;7.50;99.90
54082;DHT22;39986;50.770;0.266;2024-03-23T07:42:56;7.70;99.90
54082;DHT22;39986;50.770;0.266;2024-03-23T07:45:22;7.50;99.90
54082;DHT22;39986;50.770;0.266;2024-03-23T07:47:47;7.50;99.90
54082;DHT22;39986;50.770;0.266;2024-03-23T07:50:13;7.70;99.90
54082;DHT22;39986;50.770;0.266;2024-03-23T07:52:38;7.70;99.90
54082;DHT22;39986;50.770;0.266;2024-03-23T07:55:04;7.70;99.90
54082;DHT22;39986;50.770;0.266;2024-03-23T07:57:29;7.90;99.90
54082;DHT22;39986;50.770;0.266;2024-03-23T07:59:55;8.10;99.90
54082;DHT22;39986;50.770;0.266;2024-03-23T08:02:20;8.10;99.90
54082;DHT22;39986;50.770;0.266;2024-03-23T08:04:46;8.20;99.90
54082;DHT22;39986;50.770;0.266;2024-03-23T08:07:11;8.00;99.90
54082;DHT22;39986;50.770;0.266;2024-03-23T08:09:37;8.20;99.90
54082;DHT22;39986;50.770;0.266;2024-03-23T08:12:02;8.40;99.90
54082;DHT22;39986;50.770;0.266;2024-03-23T08:14:28;8.30;99.90
54082;DHT22;39986;50.770;0.266;2024-03-23T08:16:54;8.40;99.90
54082;DHT22;39986;50.770;0.266;2024-03-23T08:19:19;8.50;99.90
54082;DHT22;39986;50.770;0.266;2024-03-23T08:21:45;8.50;99.90
54082;DHT22;39986;50.770;0.266;2024-03-23T08:24:10;8.60;99.90
54082;DHT22;39986;50.770;0.266;2024-03-23T08:26:36;8.80;99.90
54082;DHT22;39986;50.770;0.266;2024-03-23T08:29:03;8.80;99.90
54082;DHT22;39986;50.770;0.266;2024-03-23T08:31:28;8.90;99.90
54082;DHT22;39986;50.770;0.266;2024-03-23T08:33:54;9.10;99.90
54082;DHT22;39986;50.770;0.266;2024-03-23T08:36:19;9.20;99.90
54082;DHT22;39986;50.770;0.266;2024-03-23T08:38:45;9.30;99.90
54082;DHT22;39986;50.770;0.266;2024-03-23T08:41:11;9.40;99.90
54082;DHT22;39986;50.770;0.266;2024-03-23T08:43:40;9.30;99.90
54082;DHT22;39986;50.770;0.266;2024-03-23T08:48:41;9.50;99.90
54082;DHT22;39986;50.770;0.266;2024-03-23T08:51:08;9.80;99.90
54082;DHT22;39986;50.770;0.266;2024-03-23T08:53:34;9.70;99.90
54082;DHT22;39986;50.770;0.266;2024-03-23T08:56:00;9.90;99.90
54082;DHT22;39986;50.770;0.266;2024-03-23T08:58:26;9.80;99.90
54082;DHT22;39986;50.770;0.266;2024-03-23T09:00:53;9.90;99.90
54082;DHT22;39986;50.770;0.266;2024-03-23T09:03:21;10.10;99.90
54082;DHT22;39986;50.770;0.266;2024-03-23T09:05:46;10.10;99.90
54082;DHT22;39986;50.770;0.266;2024-03-23T09:08:12;10.30;99.90
54082;DHT22;39986;50.770;0.266;2024-03-23T09:10:41;10.30;99.90
54082;DHT22;39986;50.770;0.266;2024-03-23T09:13:06;10.40;99.90
54082;DHT22;39986;50.770;0.266;2024-03-23T09:15:35;10.40;99.90
54082;DHT22;39986;50.770;0.266;2024-03-23T09:18:02;10.40;99.90
54082;DHT22;39986;50.770;0.266;2024-03-23T09:20:27;10.60;99.90
54082;DHT22;39986;50.770;0.266;2024-03-23T09:22:53;10.80;99.90
54082;DHT22;39986;50.770;0.266;2024-03-23T09:25:19;10.80;99.90
54082;DHT22;39986;50.770;0.266;2024-03-23T09:27:47;11.00;99.90
54082;DHT22;39986;50.770;0.266;2024-03-23T09:30:13;11.00;99.90
54082;DHT22;39986;50.770;0.266;2024-03-23T09:32:39;11.00;99.90
54082;DHT22;39986;50.770;0.266;2024-03-23T09:35:04;11.10;99.90
54082;DHT22;39986;50.770;0.266;2024-03-23T09:37:30;11.50;99.90
54082;DHT22;39986;50.770;0.266;2024-03-23T09:39:55;11.20;99.90
54082;DHT22;39986;50.770;0.266;2024-03-23T09:42:21;11.20;99.90
54082;DHT22;39986;50.770;0.266;2024-03-23T09:44:46;11.30;99.90
54082;DHT22;39986;50.770;0.266;2024-03-23T09:47:13;11.30;99.90
54082;DHT22;39986;50.770;0.266;2024-03-23T09:49:38;11.70;99.90
54082;DHT22;39986;50.770;0.266;2024-03-23T09:52:05;11.80;99.90
54082;DHT22;39986;50.770;0.266;2024-03-23T09:54:32;11.90;99.90
54082;DHT22;39986;50.770;0.266;2024-03-23T09:56:58;12.30;99.90
54082;DHT22;39986;50.770;0.266;2024-03-23T09:59:23;12.60;99.90
54082;DHT22;39986;50.770;0.266;2024-03-23T10:04:36;12.60;99.90
54082;DHT22;39986;50.770;0.266;2024-03-23T10:07:11;12.70;99.90
54082;DHT22;39986;50.770;0.266;2024-03-23T10:09:37;12.60;99.90
54082;DHT22;39986;50.770;0.266;2024-03-23T10:14:29;12.40;99.90
54082;DHT22;39986;50.770;0.266;2024-03-23T10:16:59;12.60;99.90
54082;DHT22;39986;50.770;0.266;2024-03-23T10:22:02;12.70;99.90
54082;DHT22;39986;50.770;0.266;2024-03-23T10:24:27;12.40;99.90
54082;DHT22;39986;50.770;0.266;2024-03-23T10:29:19;12.60;99.90
54082;DHT22;39986;50.770;0.266;2024-03-23T10:31:44;12.80;99.90
54082;DHT22;39986;50.770;0.266;2024-03-23T10:34:12;13.00;99.90
54082;DHT22;39986;50.770;0.266;2024-03-23T10:36:38;13.60;99.90
54082;DHT22;39986;50.770;0.266;2024-03-23T10:39:06;13.90;99.90
54082;DHT22;39986;50.770;0.266;2024-03-23T10:41:32;16.10;99.90
54082;DHT22;39986;50.770;0.266;2024-03-23T10:43:58;14.30;99.90
54082;DHT22;39986;50.770;0.266;2024-03-23T10:46:25;15.30;99.90
54082;DHT22;39986;50.770;0.266;2024-03-23T10:48:50;16.50;99.90
54082;DHT22;39986;50.770;0.266;2024-03-23T10:51:16;17.50;99.90
54082;DHT22;39986;50.770;0.266;2024-03-23T10:53:41;18.00;99.90
54082;DHT22;39986;50.770;0.266;2024-03-23T10:56:07;18.70;99.90
54082;DHT22;39986;50.770;0.266;2024-03-23T10:58:38;18.70;99.90
54082;DHT22;39986;50.770;0.266;2024-03-23T11:01:03;18.90;99.90
54082;DHT22;39986;50.770;0.266;2024-03-23T11:05:58;20.10;99.90
54082;DHT22;39986;50.770;0.266;2024-03-23T11:08:57;20.10;99.90
54082;DHT22;39986;50.770;0.266;2024-03-23T11:11:22;20.10;99.90
54082;DHT22;39986;50.770;0.266;2024-03-23T11:13:53;20.30;99.90
54082;DHT22;39986;50.770;0.266;2024-03-23T11:16:28;20.70;99.90
54082;DHT22;39986;50.770;0.266;2024-03-23T11:19:33;20.10;99.90
54082;DHT22;39986;50.770;0.266;2024-03-23T11:21:53;19.50;99.90
54082;DHT22;39986;50.770;0.266;2024-03-23T11:24:19;19.90;99.90
54082;DHT22;39986;50.770;0.266;2024-03-23T11:26:46;19.50;99.90
54082;DHT22;39986;50.770;0.266;2024-03-23T11:29:12;19.30;99.90
54082;DHT22;39986;50.770;0.266;2024-03-23T11:31:38;16.40;99.90
54082;DHT22;39986;50.770;0.266;2024-03-23T11:34:04;15.60;99.90
54082;DHT22;39986;50.770;0.266;2024-03-23T11:36:29;14.50;99.90
54082;DHT22;39986;50.770;0.266;2024-03-23T11:38:55;12.80;99.90
54082;DHT22;39986;50.770;0.266;2024-03-23T11:41:20;16.60;99.90
54082;DHT22;39986;50.770;0.266;2024-03-23T11:43:46;15.60;99.90
54082;DHT22;39986;50.770;0.266;2024-03-23T11:46:11;16.40;99.90
54082;DHT22;39986;50.770;0.266;2024-03-23T11:48:49;18.70;99.90
54082;DHT22;39986;50.770;0.266;2024-03-23T11:51:15;20.30;99.90
54082;DHT22;39986;50.770;0.266;2024-03-23T11:53:40;21.30;99.90
54082;DHT22;39986;50.770;0.266;2024-03-23T11:56:06;21.70;99.90
54082;DHT22;39986;50.770;0.266;2024-03-23T11:58:32;21.50;99.90
54082;DHT22;39986;50.770;0.266;2024-03-23T12:00:58;22.40;99.90
54082;DHT22;39986;50.770;0.266;2024-03-23T12:03:25;22.90;98.60
54082;DHT22;39986;50.770;0.266;2024-03-23T12:06:01;23.10;96.80
54082;DHT22;39986;50.770;0.266;2024-03-23T12:08:33;21.80;97.60
54082;DHT22;39986;50.770;0.266;2024-03-23T12:11:05;20.00;99.90
54082;DHT22;39986;50.770;0.266;2024-03-23T12:13:31;17.70;99.90
54082;DHT22;39986;50.770;0.266;2024-03-23T12:16:08;18.50;99.90
54082;DHT22;39986;50.770;0.266;2024-03-23T12:18:34;14.90;99.90
54082;DHT22;39986;50.770;0.266;2024-03-23T12:21:00;16.40;99.90
54082;DHT22;39986;50.770;0.266;2024-03-23T12:23:25;17.10;99.90
54082;DHT22;39986;50.770;0.266;2024-03-23T12:25:51;16.00;99.90
54082;DHT22;39986;50.770;0.266;2024-03-23T12:28:16;14.50;99.90
54082;DHT22;39986;50.770;0.266;2024-03-23T12:30:42;13.80;99.90
54082;DHT22;39986;50.770;0.266;2024-03-23T12:33:08;13.60;99.90
54082;DHT22;39986;50.770;0.266;2024-03-23T12:35:33;13.40;99.90
54082;DHT22;39986;50.770;0.266;2024-03-23T12:37:59;13.20;99.90
54082;DHT22;39986;50.770;0.266;2024-03-23T12:40:24;12.80;99.90
54082;DHT22;39986;50.770;0.266;2024-03-23T12:42:50;12.80;99.90
54082;DHT22;39986;50.770;0.266;2024-03-23T12:45:15;12.30;99.90
54082;DHT22;39986;50.770;0.266;2024-03-23T12:47:41;12.40;99.90
54082;DHT22;39986;50.770;0.266;2024-03-23T12:50:06;12.30;99.90
54082;DHT22;39986;50.770;0.266;2024-03-23T12:52:32;12.00;99.90
54082;DHT22;39986;50.770;0.266;2024-03-23T12:54:58;11.60;99.90
54082;DHT22;39986;50.770;0.266;2024-03-23T12:57:24;11.60;99.90
54082;DHT22;39986;50.770;0.266;2024-03-23T12:59:49;12.60;99.90
54082;DHT22;39986;50.770;0.266;2024-03-23T13:02:25;13.70;99.90
54082;DHT22;39986;50.770;0.266;2024-03-23T13:04:51;14.80;99.90
54082;DHT22;39986;50.770;0.266;2024-03-23T13:07:17;18.90;99.90
54082;DHT22;39986;50.770;0.266;2024-03-23T13:09:43;16.10;99.90
54082;DHT22;39986;50.770;0.266;2024-03-23T13:12:08;15.30;99.90
54082;DHT22;39986;50.770;0.266;2024-03-23T13:14:34;13.70;99.90
54082;DHT22;39986;50.770;0.266;2024-03-23T13:16:59;12.60;99.90
54082;DHT22;39986;50.770;0.266;2024-03-23T13:19:25;11.70;99.90
54082;DHT22;39986;50.770;0.266;2024-03-23T13:24:21;11.60;99.90
54082;DHT22;39986;50.770;0.266;2024-03-23T13:26:46;13.00;99.90
54082;DHT22;39986;50.770;0.266;2024-03-23T13:29:11;14.10;99.90
54082;DHT22;39986;50.770;0.266;2024-03-23T13:31:37;13.90;99.90
54082;DHT22;39986;50.770;0.266;2024-03-23T13:36:28;13.50;99.90
54082;DHT22;39986;50.770;0.266;2024-03-23T13:38:54;14.00;99.90
54082;DHT22;39986;50.770;0.266;2024-03-23T13:41:19;14.20;99.90
54082;DHT22;39986;50.770;0.266;2024-03-23T13:43:45;14.70;99.90
54082;DHT22;39986;50.770;0.266;2024-03-23T13:46:10;15.10;99.90
54082;DHT22;39986;50.770;0.266;2024-03-23T13:48:36;15.70;99.90
54082;DHT22;39986;50.770;0.266;2024-03-23T13:51:04;16.00;99.90
54082;DHT22;39986;50.770;0.266;2024-03-23T13:53:30;16.10;99.90
54082;DHT22;39986;50.770;0.266;2024-03-23T13:58:21;15.10;99.90
54082;DHT22;39986;50.770;0.266;2024-03-23T14:00:48;15.20;99.90
54082;DHT22;39986;50.770;0.266;2024-03-23T14:03:14;14.90;99.90
54082;DHT22;39986;50.770;0.266;2024-03-23T14:05:40;14.80;99.90
54082;DHT22;39986;50.770;0.266;2024-03-23T14:08:09;15.20;99.90
54082;DHT22;39986;50.770;0.266;2024-03-23T14:10:35;15.50;99.90
54082;DHT22;39986;50.770;0.266;2024-03-23T14:13:03;17.40;99.90
54082;DHT22;39986;50.770;0.266;2024-03-23T14:15:29;18.30;99.90
54082;DHT22;39986;50.770;0.266;2024-03-23T14:17:55;21.20;99.90
54082;DHT22;39986;50.770;0.266;2024-03-23T14:20:21;22.60;99.90
54082;DHT22;39986;50.770;0.266;2024-03-23T14:22:47;24.20;98.70
54082;DHT22;39986;50.770;0.266;2024-03-23T14:25:13;25.50;95.30
54082;DHT22;39986;50.770;0.266;2024-03-23T14:27:38;26.30;90.10
54082;DHT22;39986;50.770;0.266;2024-03-23T14:30:04;26.30;84.50
54082;DHT22;39986;50.770;0.266;2024-03-23T14:32:30;24.80;89.50
54082;DHT22;39986;50.770;0.266;2024-03-23T14:35:02;23.80;93.30
54082;DHT22;39986;50.770;0.266;2024-03-23T14:37:28;23.70;92.70
54082;DHT22;39986;50.770;0.266;2024-03-23T14:39:57;23.50;93.40
54082;DHT22;39986;50.770;0.266;2024-03-23T14:42:22;23.30;94.00
54082;DHT22;39986;50.770;0.266;2024-03-23T14:44:49;23.30;95.20
54082;DHT22;39986;50.770;0.266;2024-03-23T14:47:15;23.90;92.10
54082;DHT22;39986;50.770;0.266;2024-03-23T14:49:40;23.70;92.40
54082;DHT22;39986;50.770;0.266;2024-03-23T14:52:06;24.70;91.80
54082;DHT22;39986;50.770;0.266;2024-03-23T14:54:32;25.40;91.10
54082;DHT22;39986;50.770;0.266;2024-03-23T14:56:58;26.80;88.00
54082;DHT22;39986;50.770;0.266;2024-03-23T14:59:23;26.70;81.00
54082;DHT22;39986;50.770;0.266;2024-03-23T15:01:49;26.10;79.10
54082;DHT22;39986;50.770;0.266;2024-03-23T15:04:15;25.10;81.70
54082;DHT22;39986;50.770;0.266;2024-03-23T15:06:40;22.70;89.30
54082;DHT22;39986;50.770;0.266;2024-03-23T15:09:07;19.60;97.10
54082;DHT22;39986;50.770;0.266;2024-03-23T15:11:34;19.00;99.90
54082;DHT22;39986;50.770;0.266;2024-03-23T15:14:00;12.50;99.90
54082;DHT22;39986;50.770;0.266;2024-03-23T15:16:25;14.60;99.90
54082;DHT22;39986;50.770;0.266;2024-03-23T15:18:51;10.20;99.90
54082;DHT22;39986;50.770;0.266;2024-03-23T15:21:17;8.90;99.90
54082;DHT22;39986;50.770;0.266;2024-03-23T15:23:46;8.60;99.90
54082;DHT22;39986;50.770;0.266;2024-03-23T15:26:12;8.40;99.90
54082;DHT22;39986;50.770;0.266;2024-03-23T15:28:37;8.20;99.90
54082;DHT22;39986;50.770;0.266;2024-03-23T15:31:04;8.00;99.90
54082;DHT22;39986;50.770;0.266;2024-03-23T15:33:29;7.90;99.90
54082;DHT22;39986;50.770;0.266;2024-03-23T15:35:58;7.80;99.90
54082;DHT22;39986;50.770;0.266;2024-03-23T15:38:23;7.80;99.90
54082;DHT22;39986;50.770;0.266;2024-03-23T15:40:52;8.00;99.90
54082;DHT22;39986;50.770;0.266;2024-03-23T15:45:43;8.10;99.90
54082;DHT22;39986;50.770;0.266;2024-03-23T15:48:09;8.50;99.90
54082;DHT22;39986;50.770;0.266;2024-03-23T15:50:35;8.50;99.90
54082;DHT22;39986;50.770;0.266;2024-03-23T15:53:01;8.20;99.90
54082;DHT22;39986;50.770;0.266;2024-03-23T15:55:28;8.50;99.90
54082;DHT22;39986;50.770;0.266;2024-03-23T15:57:53;8.30;99.90
54082;DHT22;39986;50.770;0.266;2024-03-23T16:00:19;8.40;99.90
54082;DHT22;39986;50.770;0.266;2024-03-23T16:02:44;8.40;99.90
54082;DHT22;39986;50.770;0.266;2024-03-23T16:05:11;8.40;99.90
54082;DHT22;39986;50.770;0.266;2024-03-23T16:07:37;8.50;99.90
54082;DHT22;39986;50.770;0.266;2024-03-23T16:10:04;8.40;99.90
54082;DHT22;39986;50.770;0.266;2024-03-23T16:12:33;8.50;99.90
54082;DHT22;39986;50.770;0.266;2024-03-23T16:14:58;8.60;99.90
54082;DHT22;39986;50.770;0.266;2024-03-23T16:19:50;8.90;99.90
54082;DHT22;39986;50.770;0.266;2024-03-23T16:22:16;9.00;99.90
54082;DHT22;39986;50.770;0.266;2024-03-23T16:24:41;6.10;99.90
54082;DHT22;39986;50.770;0.266;2024-03-23T16:27:07;8.80;99.90
54082;DHT22;39986;50.770;0.266;2024-03-23T16:29:32;8.70;99.90
54082;DHT22;39986;50.770;0.266;2024-03-23T16:31:58;8.50;99.90
54082;DHT22;39986;50.770;0.266;2024-03-23T16:34:23;8.50;99.90
54082;DHT22;39986;50.770;0.266;2024-03-23T16:36:49;8.40;99.90
54082;DHT22;39986;50.770;0.266;2024-03-23T16:39:15;8.60;99.90
54082;DHT22;39986;50.770;0.266;2024-03-23T16:41:40;8.50;99.90
54082;DHT22;39986;50.770;0.266;2024-03-23T16:46:32;8.30;99.90
54082;DHT22;39986;50.770;0.266;2024-03-23T16:48:57;8.30;99.90
54082;DHT22;39986;50.770;0.266;2024-03-23T16:51:23;8.30;99.90
54082;DHT22;39986;50.770;0.266;2024-03-23T16:53:48;8.50;99.90
54082;DHT22;39986;50.770;0.266;2024-03-23T16:56:14;8.70;99.90
54082;DHT22;39986;50.770;0.266;2024-03-23T16:58:39;5.10;99.90
54082;DHT22;39986;50.770;0.266;2024-03-23T17:01:06;8.40;99.90
54082;DHT22;39986;50.770;0.266;2024-03-23T17:03:35;8.20;99.90
54082;DHT22;39986;50.770;0.266;2024-03-23T17:06:04;8.40;99.90
54082;DHT22;39986;50.770;0.266;2024-03-23T17:08:30;8.60;99.90
54082;DHT22;39986;50.770;0.266;2024-03-23T17:11:05;8.20;99.90